VOML/IXE METAR and TAF weather

Enter ICAO airport designator
Station Type Date Time Source
VOML METAR 2021/10/22 18:00 UTC NOAA

VOML 221800Z 00000KT 6000 FEW012 BKN080 26/24 Q1012 NOSIG


Station Type Date Time Source
VOML Decoded METAR 2021/10/22 18:00 UTC NOAA

Mangalore / Bajpe, India (VOML) 12-55N 074-53E 102M
Oct 22, 2021 - 02:00 PM EDT / 2021.10.22 1800 UTC
Wind: Calm:0
Visibility: 3 mile(s):0
Sky conditions: mostly cloudy
Temperature: 78 F (26 C)
Dew Point: 75 F (24 C)
Relative Humidity: 88%
Pressure (altimeter): 29.88 in. Hg (1012 hPa)
ob: VOML 221800Z 00000KT 6000 FEW012 BKN080 26/24 Q1012 NOSIG
cycle: 18

Station Type Date Time Source
VOML TAF 2021/10/22 18:00 UTC NOAA

TAF VOML 221700Z 2218/2324 VRB02KT 6000 SCT012 BKN080
BECMG 2222/2223 3000 BR SCT005 SCT012
TEMPO 2300/2303 0800 FG SCT003 SCT012
BECMG 2305/2306 29005KT 6000 SCT012
TEMPO 2312/2318 3000 TSRA RA SCT010 SCT012 FEW025CB BKN080
BECMG 2316/2317 VRB02KT

Example: see airport list